createdAt,value
2022-11-24T00:00:31.352Z,62.08
2022-11-24T00:05:38.326Z,62.09
2022-11-24T00:10:39.787Z,61.78
2022-11-24T00:15:41.236Z,62.14
2022-11-24T00:20:42.682Z,63.37
2022-11-24T00:25:44.134Z,63.03
2022-11-24T00:30:45.679Z,62.07
2022-11-24T00:35:54.613Z,61.64
2022-11-24T00:40:56.111Z,61.66
2022-11-24T00:45:57.687Z,61.83
2022-11-24T00:51:00.990Z,60.72
2022-11-24T00:56:03.938Z,61.16
2022-11-24T01:01:07.498Z,60.79
2022-11-24T01:06:13.463Z,61.48
2022-11-24T01:11:19.398Z,62.74
2022-11-24T01:16:31.862Z,62.66
2022-11-24T01:21:33.327Z,63.57
2022-11-24T01:26:34.779Z,63.14
2022-11-24T01:31:37.015Z,63.31
2022-11-24T01:36:38.514Z,62.38
2022-11-24T01:41:40.030Z,62.73
2022-11-24T01:46:44.816Z,62.13
2022-11-24T01:52:19.949Z,63.02
2022-11-24T01:57:29.621Z,64.16
2022-11-24T02:02:31.084Z,63.33
2022-11-24T02:07:32.610Z,62.95
2022-11-24T02:12:34.126Z,62.29
2022-11-24T02:17:35.672Z,61.33
2022-11-24T02:23:03.670Z,60.84
2022-11-24T02:28:07.270Z,61.64
2022-11-24T02:33:09.930Z,61.39
2022-11-24T02:38:12.818Z,61.38
2022-11-24T02:43:16.490Z,60.53
2022-11-24T02:48:17.965Z,60.61
2022-11-24T02:53:19.426Z,60.75
2022-11-24T02:58:20.939Z,60.75
2022-11-24T03:03:22.437Z,60.64
2022-11-24T03:08:23.898Z,60.62
2022-11-24T03:13:25.358Z,60.47
2022-11-24T03:18:26.806Z,61.49
2022-11-24T03:23:28.272Z,61.04
2022-11-24T03:28:29.722Z,60.58
2022-11-24T03:33:31.174Z,60.27
2022-11-24T03:38:32.683Z,61.36
2022-11-24T03:43:35.913Z,60.80
2022-11-24T03:48:40.626Z,60.26
2022-11-24T03:53:42.084Z,59.99
2022-11-24T03:58:43.536Z,60.43
2022-11-24T04:03:44.984Z,60.18
2022-11-24T04:08:46.444Z,58.66
2022-11-24T04:13:47.921Z,58.41
2022-11-24T04:18:52.249Z,58.36
2022-11-24T04:23:53.702Z,58.45
2022-11-24T04:28:55.160Z,58.79
2022-11-24T04:33:56.624Z,58.69
2022-11-24T04:39:23.122Z,59.35
2022-11-24T04:44:19.520Z,59.05
2022-11-24T04:49:20.972Z,58.99
2022-11-24T04:54:22.426Z,58.02
2022-11-24T04:59:23.880Z,58.08
2022-11-24T05:04:25.362Z,58.28
2022-11-24T05:09:48.000Z,58.38
2022-11-24T05:14:48.292Z,58.80
2022-11-24T05:19:49.760Z,58.62
2022-11-24T05:24:51.212Z,58.39
2022-11-24T05:29:52.695Z,58.41
2022-11-24T05:34:54.618Z,58.28
2022-11-24T05:39:56.076Z,58.03
2022-11-24T05:44:59.540Z,57.69
2022-11-24T05:50:01.012Z,57.88
2022-11-24T05:55:02.513Z,57.84
2022-11-24T06:00:05.700Z,58.16
2022-11-24T06:05:07.407Z,58.13
2022-11-24T06:10:09.150Z,58.12
2022-11-24T06:15:11.203Z,58.05
2022-11-24T06:20:12.704Z,58.30
2022-11-24T06:25:14.358Z,57.84
2022-11-24T06:30:15.824Z,58.26
2022-11-24T06:35:17.409Z,59.21
2022-11-24T06:40:18.899Z,59.67
2022-11-24T06:45:20.440Z,58.46
2022-11-24T06:50:22.553Z,58.70
2022-11-24T06:55:24.002Z,58.02
2022-11-24T07:00:25.537Z,57.88
2022-11-24T07:05:27.201Z,58.23
2022-11-24T07:10:28.728Z,57.93
2022-11-24T07:15:30.517Z,58.23
2022-11-24T07:20:32.014Z,58.22
2022-11-24T07:25:33.600Z,58.07
2022-11-24T07:30:35.060Z,58.41
2022-11-24T07:35:36.532Z,58.67
2022-11-24T07:40:37.983Z,59.74
2022-11-24T07:45:39.529Z,59.22
2022-11-24T07:50:41.021Z,58.91
2022-11-24T07:55:42.494Z,59.00
2022-11-24T08:00:43.959Z,58.17
2022-11-24T08:11:18.158Z,57.71
2022-11-24T08:16:19.740Z,56.90
2022-11-24T08:21:23.084Z,57.11
2022-11-24T08:26:25.103Z,57.31
2022-11-24T08:31:32.711Z,56.64
2022-11-24T08:36:35.177Z,56.56
2022-11-24T08:41:36.676Z,56.74
2022-11-24T08:46:38.250Z,56.39
2022-11-24T08:51:39.780Z,56.81
2022-11-24T08:56:41.264Z,56.84
2022-11-24T09:01:42.954Z,56.80
2022-11-24T09:06:44.499Z,56.96
2022-11-24T09:11:45.959Z,56.17
2022-11-24T09:16:47.502Z,56.77
2022-11-24T09:21:48.994Z,56.74
2022-11-24T09:26:50.471Z,56.49
2022-11-24T09:31:51.928Z,56.11
2022-11-24T09:36:53.384Z,55.43
2022-11-24T09:42:00.040Z,55.51
2022-11-24T09:47:18.949Z,54.51
2022-11-24T09:52:37.887Z,55.40
2022-11-24T09:57:39.336Z,55.77
2022-11-24T10:02:40.808Z,55.17
2022-11-24T10:07:45.351Z,55.43
2022-11-24T10:13:09.832Z,56.49
2022-11-24T10:18:33.150Z,56.52
2022-11-24T10:23:50.433Z,56.08
2022-11-24T10:28:54.148Z,54.58
2022-11-24T10:33:56.871Z,55.17
2022-11-24T10:39:11.087Z,54.78
2022-11-24T10:44:13.901Z,54.97
2022-11-24T10:49:24.971Z,54.97
2022-11-24T10:54:26.436Z,55.01
2022-11-24T10:59:33.630Z,55.36
2022-11-24T11:04:35.477Z,55.32
2022-11-24T11:09:37.093Z,55.43
2022-11-24T11:14:38.848Z,55.97
2022-11-24T11:19:50.373Z,55.66
2022-11-24T11:25:19.336Z,56.99
2022-11-24T11:35:44.875Z,55.16
2022-11-24T11:40:46.328Z,55.62
2022-11-24T11:45:47.823Z,55.73
2022-11-24T11:56:20.593Z,54.36
2022-11-24T12:01:54.353Z,54.88
2022-11-24T12:07:07.618Z,55.35
2022-11-24T12:12:29.511Z,55.45
2022-11-24T12:17:52.645Z,56.27
2022-11-24T12:23:02.877Z,57.07
2022-11-24T12:28:24.097Z,55.52
2022-11-24T12:33:37.407Z,55.75
2022-11-24T12:38:45.613Z,55.61
2022-11-24T12:43:54.801Z,55.45
2022-11-24T12:49:17.418Z,56.70
2022-11-24T12:54:19.795Z,57.44
2022-11-24T12:59:34.571Z,56.33
2022-11-24T13:04:41.871Z,55.97
2022-11-24T13:10:34.657Z,55.69
2022-11-24T13:16:28.480Z,55.70
2022-11-24T13:21:28.249Z,55.90
2022-11-24T13:26:44.695Z,55.75
2022-11-24T13:31:46.252Z,55.97
2022-11-24T13:36:52.258Z,55.78
2022-11-24T13:41:53.622Z,56.11
2022-11-24T13:47:00.176Z,55.90
2022-11-24T13:52:39.610Z,56.33
2022-11-24T13:58:05.018Z,55.92
2022-11-24T14:03:19.647Z,56.40
2022-11-24T14:08:25.591Z,55.31
2022-11-24T14:13:28.603Z,55.81
2022-11-24T14:18:31.522Z,55.65
2022-11-24T14:23:33.006Z,56.38
2022-11-24T14:28:34.587Z,55.76
2022-11-24T14:33:36.350Z,55.93
2022-11-24T14:38:37.828Z,55.52
2022-11-24T14:43:39.293Z,55.64
2022-11-24T14:48:50.722Z,55.44
2022-11-24T14:53:59.877Z,55.48
2022-11-24T14:59:01.354Z,56.06
2022-11-24T15:09:47.496Z,56.05
2022-11-24T15:14:52.436Z,56.31
2022-11-24T15:20:30.322Z,56.83
2022-11-24T15:25:33.327Z,56.42
2022-11-24T15:30:35.576Z,56.81
2022-11-24T15:35:37.060Z,56.35
2022-11-24T15:40:39.047Z,56.27
2022-11-24T15:45:40.502Z,56.62
2022-11-24T15:50:41.977Z,57.31
2022-11-24T15:55:43.484Z,57.37
2022-11-24T16:00:45.357Z,57.45
2022-11-24T16:05:46.888Z,57.16
2022-11-24T16:10:48.354Z,57.21
2022-11-24T16:15:50.017Z,57.23
2022-11-24T16:20:51.604Z,57.50
2022-11-24T16:25:53.068Z,57.65
2022-11-24T16:30:54.571Z,57.32
2022-11-24T16:35:56.065Z,57.34
2022-11-24T16:40:57.544Z,57.38
2022-11-24T16:46:17.597Z,58.25
2022-11-24T16:51:20.624Z,58.87
2022-11-24T16:56:22.084Z,59.86
2022-11-24T17:01:23.694Z,60.02
2022-11-24T17:06:26.748Z,59.78
2022-11-24T17:11:28.412Z,59.78
2022-11-24T17:16:30.128Z,60.57
2022-11-24T17:21:32.136Z,60.81
2022-11-24T17:26:33.688Z,61.03
2022-11-24T17:31:40.033Z,60.80
2022-11-24T17:36:44.570Z,60.95
2022-11-24T17:41:46.118Z,61.09
2022-11-24T17:46:47.578Z,61.01
2022-11-24T17:51:50.471Z,60.83
2022-11-24T17:56:51.989Z,60.76
2022-11-24T18:01:53.495Z,60.05
2022-11-24T18:06:55.049Z,61.09
2022-11-24T18:11:56.514Z,60.60
2022-11-24T18:16:58.048Z,60.69
2022-11-24T18:21:59.576Z,60.51
2022-11-24T18:27:01.036Z,61.24
2022-11-24T18:32:02.587Z,61.23
2022-11-24T18:37:04.341Z,60.59
2022-11-24T18:42:05.828Z,60.46
2022-11-24T18:47:07.293Z,61.15
2022-11-24T18:52:08.780Z,60.92
2022-11-24T18:57:10.270Z,61.22
2022-11-24T19:02:12.261Z,62.19
2022-11-24T19:07:16.913Z,62.05
2022-11-24T19:12:18.457Z,62.27
2022-11-24T19:17:19.977Z,63.91
2022-11-24T19:22:21.748Z,62.89
2022-11-24T19:27:23.234Z,62.33
2022-11-24T19:32:24.720Z,62.09
2022-11-24T19:37:27.726Z,61.71
2022-11-24T19:42:29.203Z,62.68
2022-11-24T19:47:30.669Z,62.02
2022-11-24T19:52:32.135Z,61.40
2022-11-24T19:57:33.616Z,63.03
2022-11-24T20:02:35.131Z,63.81
2022-11-24T20:07:36.769Z,62.09
2022-11-24T20:12:38.250Z,62.43
2022-11-24T20:17:39.726Z,62.39
2022-11-24T20:22:41.524Z,62.60
2022-11-24T20:27:42.992Z,61.92
2022-11-24T20:32:44.469Z,61.90
2022-11-24T20:37:45.929Z,62.44
2022-11-24T20:42:47.383Z,61.85
2022-11-24T20:47:48.850Z,61.68
2022-11-24T20:52:50.323Z,61.39
2022-11-24T20:57:51.785Z,61.18
2022-11-24T21:02:53.313Z,61.04
2022-11-24T21:07:54.871Z,60.84
2022-11-24T21:12:56.408Z,60.88
2022-11-24T21:17:57.928Z,60.75
2022-11-24T21:22:59.393Z,60.39
2022-11-24T21:28:00.862Z,60.64
2022-11-24T21:33:05.401Z,60.50
2022-11-24T21:38:06.854Z,60.25
2022-11-24T21:43:08.904Z,60.58
2022-11-24T21:48:10.365Z,60.74
2022-11-24T21:53:11.824Z,59.50
2022-11-24T21:58:13.844Z,59.38
2022-11-24T22:03:15.317Z,60.13
2022-11-24T22:08:16.776Z,61.24
2022-11-24T22:13:18.340Z,60.76
2022-11-24T22:18:19.824Z,61.30
2022-11-24T22:23:21.274Z,60.63
2022-11-24T22:28:22.732Z,60.92
2022-11-24T22:33:24.185Z,61.12
2022-11-24T22:38:25.804Z,59.89
2022-11-24T22:43:27.261Z,60.00
2022-11-24T22:48:28.723Z,60.62
2022-11-24T22:53:30.423Z,60.28
2022-11-24T22:58:32.164Z,59.21
2022-11-24T23:03:34.353Z,60.04
2022-11-24T23:08:35.908Z,60.28
2022-11-24T23:13:37.378Z,60.60
2022-11-24T23:18:38.918Z,60.62
2022-11-24T23:23:40.452Z,60.56
2022-11-24T23:28:43.067Z,60.99
2022-11-24T23:33:44.596Z,59.66
2022-11-24T23:38:46.357Z,59.75
2022-11-24T23:43:47.835Z,60.08
2022-11-24T23:48:49.730Z,58.98
2022-11-24T23:53:51.266Z,58.75
2022-11-24T23:58:52.778Z,58.53
